Time;durP1;ratioP1;P1;durP2;ratioP2;P2;SDS_P1;SDS_P2;PMS_P1;PMS_P2;Temp;Humidity;BMP_temperature;BMP_pressure;BME280_temperature;BME280_humidity;BME280_pressure;Samples;Min_cycle;Max_cycle;Signal;HPM_P1;HPM_P2
2022/04/26 03:38:27;;;;;;;23.35;12.30;;;8.10;1.00;;;;;;5055825;28;20048;-75
2022/04/26 03:40:58;;;;;;;21.08;11.25;;;8.10;1.00;;;;;;5055451;28;20400;-73
2022/04/26 03:43:25;;;;;;;25.50;10.75;;;8.00;1.00;;;;;;5073461;28;20040;-75
2022/04/26 03:45:53;;;;;;;20.20;10.15;;;8.00;1.00;;;;;;5066049;28;20102;-74
2022/04/26 03:48:21;;;;;;;21.38;11.13;;;8.00;13.50;;;;;;5072541;28;20131;-76
2022/04/26 03:50:50;;;;;;;26.27;13.05;;;8.00;1.00;;;;;;5035611;28;20511;-74
2022/04/26 03:53:18;;;;;;;20.58;11.70;;;8.00;99.90;;;;;;5035117;28;20483;-74
2022/04/26 03:55:46;;;;;;;24.05;14.13;;;8.00;99.90;;;;;;5051348;28;20131;-74
2022/04/26 03:58:13;;;;;;;25.45;14.43;;;8.00;27.20;;;;;;5072007;28;20040;-75
2022/04/26 04:00:41;;;;;;;33.47;15.85;;;8.10;34.80;;;;;;5084097;28;20116;-75
2022/04/26 04:03:09;;;;;;;35.20;20.45;;;8.10;1.00;;;;;;5102921;28;20044;-76
2022/04/26 04:05:37;;;;;;;29.98;17.23;;;8.10;1.00;;;;;;5072048;28;20044;-75
2022/04/26 04:08:08;;;;;;;21.85;12.00;;;8.30;99.90;;;;;;5059131;28;20049;-75
2022/04/26 04:10:35;;;;;;;16.15;8.02;;;8.40;99.90;;;;;;5077229;28;20098;-74
2022/04/26 04:13:03;;;;;;;10.05;6.15;;;8.70;1.00;;;;;;5077305;28;20050;-75
2022/04/26 04:15:31;;;;;;;12.20;7.25;;;9.40;1.00;;;;;;5077026;28;20119;-76
2022/04/26 04:17:58;;;;;;;11.75;8.25;;;9.80;1.00;;;;;;5060153;28;20059;-76
2022/04/26 04:20:26;;;;;;;14.75;8.35;;;10.30;1.00;;;;;;5059286;28;20043;-74
2022/04/26 04:22:55;;;;;;;13.57;7.38;;;10.70;1.00;;;;;;5059009;28;20075;-76
2022/04/26 04:25:24;;;;;;;14.90;7.60;;;11.20;1.00;;;;;;5076149;28;20116;-74
2022/04/26 04:27:52;;;;;;;22.95;8.73;;;11.00;1.00;;;;;;5058226;28;20045;-75
2022/04/26 04:30:19;;;;;;;13.80;7.68;;;10.80;1.00;;;;;;5058302;28;20480;-74
2022/04/26 04:32:47;;;;;;;13.10;7.10;;;10.60;40.60;;;;;;5059294;28;20041;-75
2022/04/26 04:35:14;;;;;;;29.15;13.32;;;10.40;59.20;;;;;;5067373;28;20127;-75
2022/04/26 04:37:42;;;;;;;18.60;10.02;;;10.30;1.00;;;;;;5088549;28;20126;-76
2022/04/26 04:40:12;;;;;;;16.98;9.90;;;10.70;1.00;;;;;;5058915;28;20050;-76
2022/04/26 04:42:41;;;;;;;15.32;8.82;;;10.70;74.70;;;;;;5058017;28;20047;-76
2022/04/26 04:45:09;;;;;;;13.60;8.27;;;11.00;86.70;;;;;;5058462;28;20484;-75
2022/04/26 04:47:37;;;;;;;15.82;8.65;;;11.20;76.90;;;;;;5055359;28;20043;-74
2022/04/26 04:50:05;;;;;;;20.75;10.32;;;11.30;79.70;;;;;;5074755;28;20495;-74
2022/04/26 04:52:32;;;;;;;15.82;9.00;;;11.20;62.20;;;;;;5063612;28;20076;-76
2022/04/26 04:55:00;;;;;;;19.48;8.30;;;11.00;63.90;;;;;;5056995;28;20044;-75
2022/04/26 04:57:28;;;;;;;15.20;9.70;;;11.00;94.80;;;;;;5059832;28;20460;-75
2022/04/26 05:00:00;;;;;;;17.38;8.70;;;11.00;95.80;;;;;;5059194;28;20059;-73
2022/04/26 05:02:28;;;;;;;15.98;7.00;;;11.20;92.40;;;;;;5082548;28;20048;-74
2022/04/26 05:04:56;;;;;;;10.68;6.55;;;11.40;91.60;;;;;;5083520;28;20051;-74
2022/04/26 05:07:23;;;;;;;12.82;7.03;;;11.60;99.90;;;;;;5081528;28;20454;-76
2022/04/26 05:09:52;;;;;;;12.02;6.72;;;11.70;99.90;;;;;;5059887;28;20063;-76
2022/04/26 05:12:20;;;;;;;15.43;6.20;;;11.90;99.90;;;;;;5058361;28;20052;-76
2022/04/26 05:14:47;;;;;;;15.40;6.32;;;12.00;99.90;;;;;;5058187;28;20467;-75
2022/04/26 05:17:16;;;;;;;13.30;6.40;;;11.90;99.90;;;;;;5057790;28;20041;-76
2022/04/26 05:19:44;;;;;;;10.02;6.05;;;12.30;99.90;;;;;;5076758;28;20044;-76
2022/04/26 05:22:11;;;;;;;10.82;6.22;;;12.50;99.90;;;;;;5076467;28;20415;-76
2022/04/26 05:24:53;;;;;;;11.18;6.20;;;12.70;99.90;;;;;;5076670;28;20127;-76
2022/04/26 05:27:21;;;;;;;13.30;7.47;;;12.80;99.90;;;;;;5075641;28;20403;-75
2022/04/26 05:29:51;;;;;;;14.75;7.40;;;13.10;99.90;;;;;;5057926;28;20105;-76
2022/04/26 05:32:24;;;;;;;14.25;8.68;;;13.30;99.00;;;;;;5075880;28;20040;-76
2022/04/26 05:34:57;;;;;;;20.10;9.55;;;13.60;99.90;;;;;;5057210;28;20360;-75
2022/04/26 05:37:29;;;;;;;26.67;9.70;;;13.70;99.90;;;;;;5076126;28;20036;-77
2022/04/26 05:39:57;;;;;;;27.20;13.18;;;13.90;99.90;;;;;;5058530;28;20135;-76
2022/04/26 05:42:24;;;;;;;13.40;6.70;;;14.10;99.90;;;;;;5058685;28;20037;-75
2022/04/26 05:44:52;;;;;;;13.18;6.90;;;13.90;99.90;;;;;;5076100;28;20048;-76
2022/04/26 05:47:19;;;;;;;14.40;7.95;;;13.50;99.90;;;;;;5059512;28;20044;-77
2022/04/26 05:49:48;;;;;;;18.45;11.30;;;13.40;99.90;;;;;;5059818;28;20054;-76
2022/04/26 05:52:16;;;;;;;21.63;10.50;;;13.50;99.90;;;;;;5059133;28;20064;-77
2022/04/26 05:54:43;;;;;;;15.30;10.05;;;13.70;99.90;;;;;;5058882;28;20055;-76
2022/04/26 05:57:11;;;;;;;19.38;8.80;;;13.80;99.90;;;;;;5058121;28;20163;-77
2022/04/26 05:59:45;;;;;;;15.43;9.50;;;13.90;99.90;;;;;;5076914;28;20052;-77
2022/04/26 06:02:13;;;;;;;20.38;9.65;;;14.00;99.90;;;;;;5083644;28;20037;-76
2022/04/26 06:04:42;;;;;;;14.57;8.07;;;14.20;99.90;;;;;;5068128;28;20059;-77
2022/04/26 06:07:13;;;;;;;12.13;7.25;;;14.40;99.90;;;;;;5091220;28;20044;-77
2022/04/26 06:09:41;;;;;;;17.77;8.43;;;14.60;99.90;;;;;;5079916;28;20049;-77
2022/04/26 06:12:09;;;;;;;16.00;8.48;;;14.70;99.90;;;;;;5099888;28;20064;-78
2022/04/26 06:14:37;;;;;;;13.10;6.75;;;14.90;99.90;;;;;;5082072;28;20089;-77
2022/04/26 06:17:05;;;;;;;13.10;6.20;;;15.00;99.90;;;;;;5084583;28;20062;-77
2022/04/26 06:19:32;;;;;;;13.82;7.05;;;15.30;99.90;;;;;;5101662;28;20119;-78
2022/04/26 06:21:59;;;;;;;12.73;6.90;;;15.30;99.90;;;;;;5101842;28;20051;-77
2022/04/26 06:24:28;;;;;;;16.77;7.10;;;15.60;99.90;;;;;;5083244;28;20138;-77
2022/04/26 06:26:56;;;;;;;11.13;5.85;;;16.00;99.90;;;;;;5079460;28;20563;-78
2022/04/26 06:29:23;;;;;;;11.30;6.10;;;16.00;99.90;;;;;;5097946;28;20040;-78
2022/04/26 06:31:51;;;;;;;10.85;6.50;;;16.50;99.90;;;;;;5096318;28;20072;-78
2022/04/26 06:34:19;;;;;;;14.73;7.03;;;16.70;99.90;;;;;;5078551;28;20082;-78
2022/04/26 06:36:47;;;;;;;15.27;7.30;;;16.70;99.90;;;;;;5096447;28;20040;-77
2022/04/26 06:39:14;;;;;;;16.20;7.13;;;16.70;99.90;;;;;;5096423;28;20483;-78
2022/04/26 06:41:48;;;;;;;15.93;6.90;;;16.90;99.90;;;;;;5096601;28;20449;-77
2022/04/26 06:44:17;;;;;;;18.50;6.82;;;16.90;99.90;;;;;;5094942;28;20066;-78
2022/04/26 06:46:48;;;;;;;15.00;6.78;;;17.30;99.90;;;;;;5078253;28;20067;-78
2022/04/26 06:49:15;;;;;;;20.65;13.23;;;17.80;99.90;;;;;;5094834;28;20043;-76
2022/04/26 06:51:44;;;;;;;13.80;7.20;;;18.40;99.90;;;;;;5094289;28;20506;-76
2022/04/26 06:54:11;;;;;;;11.88;6.20;;;18.90;99.90;;;;;;5075842;28;20075;-78
2022/04/26 06:56:40;;;;;;;11.05;5.60;;;19.30;99.90;;;;;;5095026;28;20036;-78
2022/04/26 06:59:09;;;;;;;9.55;5.45;;;19.30;99.90;;;;;;5077668;28;20068;-77
2022/04/26 07:01:36;;;;;;;10.32;4.05;;;19.20;99.90;;;;;;5095290;28;20051;-76
2022/04/26 07:04:04;;;;;;;10.55;4.18;;;19.30;99.90;;;;;;5096539;28;20475;-77
2022/04/26 07:06:32;;;;;;;11.80;6.28;;;19.70;99.90;;;;;;5076890;28;20044;-76
2022/04/26 07:08:59;;;;;;;13.07;4.97;;;20.00;99.90;;;;;;5077078;28;20495;-78
2022/04/26 07:11:27;;;;;;;15.38;5.90;;;20.00;99.90;;;;;;5095743;28;20127;-80
2022/04/26 07:13:57;;;;;;;20.10;5.78;;;19.60;99.90;;;;;;5077232;28;20068;-78
2022/04/26 07:16:26;;;;;;;14.23;4.80;;;19.30;99.90;;;;;;5095771;28;20068;-78
2022/04/26 07:18:53;;;;;;;18.55;4.57;;;19.10;99.90;;;;;;5096559;28;20044;-77
2022/04/26 07:21:20;;;;;;;11.52;4.05;;;18.90;99.90;;;;;;5077507;28;20044;-78
2022/04/26 07:23:48;;;;;;;14.82;4.32;;;19.00;99.90;;;;;;5095771;28;20127;-77
2022/04/26 07:26:16;;;;;;;9.85;3.08;;;19.30;99.90;;;;;;5077726;28;20040;-78
2022/04/26 07:28:43;;;;;;;12.07;3.50;;;19.70;99.90;;;;;;5080013;28;20410;-78
2022/04/26 07:31:10;;;;;;;8.18;3.50;;;19.90;99.90;;;;;;5097819;28;20044;-78
2022/04/26 07:36:24;;;;;;;11.05;2.70;;;20.30;99.90;;;;;;5098275;28;20511;-79
2022/04/26 07:38:52;;;;;;;7.57;2.08;;;20.10;99.90;;;;;;5097675;28;20036;-77
2022/04/26 07:41:19;;;;;;;4.95;2.05;;;19.70;99.90;;;;;;5099265;28;20395;-77
2022/04/26 07:43:47;;;;;;;7.78;2.65;;;19.50;99.90;;;;;;5083693;28;20571;-77
2022/04/26 07:46:15;;;;;;;9.77;2.25;;;19.60;99.90;;;;;;5101238;28;20044;-79
2022/04/26 07:48:44;;;;;;;6.45;2.22;;;19.70;99.90;;;;;;5100975;28;20066;-77
2022/04/26 07:51:12;;;;;;;8.77;3.00;;;19.70;99.90;;;;;;5101203;28;20122;-78
2022/04/26 07:53:40;;;;;;;11.40;3.80;;;19.50;99.90;;;;;;5082891;28;20491;-77
2022/04/26 07:56:07;;;;;;;8.52;3.00;;;19.50;99.90;;;;;;5103794;28;20040;-78
2022/04/26 07:58:34;;;;;;;10.68;4.50;;;19.30;99.90;;;;;;5099677;28;20054;-77
2022/04/26 08:01:03;;;;;;;6.35;2.90;;;19.40;99.90;;;;;;5100211;28;20109;-79
2022/04/26 08:03:33;;;;;;;9.02;3.80;;;19.80;99.90;;;;;;5090518;28;20109;-78
2022/04/26 08:06:02;;;;;;;11.95;3.63;;;20.00;99.90;;;;;;5080953;28;20418;-78
2022/04/26 08:08:30;;;;;;;7.88;2.42;;;20.00;99.90;;;;;;5043047;28;20056;-77
2022/04/26 08:11:00;;;;;;;8.88;2.90;;;20.00;99.90;;;;;;5061756;28;20048;-76
2022/04/26 08:13:27;;;;;;;8.82;2.80;;;20.20;99.90;;;;;;5080840;28;20103;-77
2022/04/26 08:15:55;;;;;;;11.77;4.20;;;20.50;99.90;;;;;;5078928;28;20234;-77
2022/04/26 08:18:23;;;;;;;7.55;2.95;;;20.60;99.90;;;;;;5087545;28;20112;-77
2022/04/26 08:20:51;;;;;;;9.73;3.72;;;20.60;99.90;;;;;;5088681;28;20044;-77
2022/04/26 08:23:21;;;;;;;8.75;3.78;;;20.60;99.90;;;;;;5066257;28;20055;-78
2022/04/26 08:28:34;;;;;;;7.75;2.78;;;20.80;99.90;;;;;;5079417;28;20163;-78
2022/04/26 08:31:02;;;;;;;8.07;2.50;;;20.70;99.90;;;;;;5060956;28;20098;-78
2022/04/26 08:33:30;;;;;;;6.10;2.50;;;20.90;99.90;;;;;;5078784;28;20040;-78
2022/04/26 08:35:57;;;;;;;8.70;3.90;;;21.10;99.90;;;;;;5079104;28;20052;-77
2022/04/26 08:38:29;;;;;;;8.38;2.78;;;21.10;99.90;;;;;;5077758;28;20120;-78
2022/04/26 08:40:56;;;;;;;7.53;2.95;;;21.00;98.90;;;;;;5079212;28;20046;-77
2022/04/26 08:43:24;;;;;;;7.07;2.90;;;20.60;99.10;;;;;;5077979;28;20055;-76
2022/04/26 08:45:52;;;;;;;5.93;3.05;;;20.40;99.30;;;;;;5077666;28;20041;-78
2022/04/26 08:51:04;;;;;;;4.10;1.85;;;20.70;98.60;;;;;;5046515;28;20550;-78
2022/04/26 08:53:35;;;;;;;5.85;2.50;;;20.80;98.00;;;;;;5059932;28;20048;-77
2022/04/26 08:56:06;;;;;;;4.97;1.48;;;21.00;97.90;;;;;;5078427;28;20049;-78
2022/04/26 08:58:34;;;;;;;5.43;2.25;;;20.90;97.30;;;;;;5076800;28;20535;-78
2022/04/26 09:01:22;;;;;;;5.80;3.30;;;21.10;97.60;;;;;;5079494;28;20090;-77
2022/04/26 09:03:59;;;;;;;5.32;1.90;;;21.20;96.50;;;;;;5062203;28;20040;-79
2022/04/26 09:06:39;;;;;;;13.25;8.80;;;21.30;95.60;;;;;;5061001;28;20518;-78
2022/04/26 09:09:09;;;;;;;8.60;2.65;;;21.20;94.60;;;;;;5079082;28;20086;-78
2022/04/26 09:11:37;;;;;;;3.05;1.33;;;21.10;94.20;;;;;;5048465;28;20045;-77
2022/04/26 09:14:08;;;;;;;2.60;1.30;;;21.20;93.90;;;;;;5047657;28;20124;-78
2022/04/26 09:16:36;;;;;;;4.68;1.30;;;21.10;94.10;;;;;;5058385;28;20035;-77
2022/04/26 09:19:06;;;;;;;5.90;2.28;;;21.10;94.20;;;;;;5058558;28;20056;-78
2022/04/26 09:21:35;;;;;;;8.38;2.53;;;21.00;94.60;;;;;;5041102;28;20443;-77
2022/04/26 09:24:08;;;;;;;5.88;2.00;;;21.10;95.00;;;;;;5042309;28;20056;-78
2022/04/26 09:26:36;;;;;;;3.88;1.50;;;21.20;93.20;;;;;;5042125;28;20048;-79
2022/04/26 09:29:05;;;;;;;5.63;1.88;;;21.40;92.80;;;;;;5060531;28;20094;-77
2022/04/26 09:31:34;;;;;;;3.53;1.50;;;21.40;92.90;;;;;;5065664;28;20120;-78
2022/04/26 09:34:05;;;;;;;4.10;1.25;;;21.20;92.50;;;;;;5043186;28;20541;-76
2022/04/26 09:36:45;;;;;;;3.53;1.30;;;20.90;92.60;;;;;;5059836;28;20048;-77
2022/04/26 09:39:19;;;;;;;6.43;4.10;;;21.00;92.40;;;;;;5062679;28;20044;-78
2022/04/26 09:41:50;;;;;;;5.50;2.42;;;20.90;93.10;;;;;;5069496;28;20064;-78
2022/04/26 09:44:17;;;;;;;5.85;2.15;;;20.80;92.90;;;;;;5063079;28;20047;-77
2022/04/26 09:46:50;;;;;;;6.57;2.40;;;20.90;93.50;;;;;;5061170;28;20041;-78
2022/04/26 09:49:19;;;;;;;5.93;2.08;;;21.10;93.30;;;;;;5062030;28;20041;-77
2022/04/26 09:51:54;;;;;;;8.25;2.38;;;21.20;93.30;;;;;;5046992;28;20045;-77
2022/04/26 09:54:23;;;;;;;;;;;21.40;93.50;;;;;;5070660;28;20041;-78
2022/04/26 09:56:52;;;;;;;4.28;1.83;;;21.60;92.70;;;;;;5072694;28;19924;-77
2022/04/26 09:59:27;;;;;;;5.68;2.25;;;21.60;93.10;;;;;;5072426;28;20059;-78
2022/04/26 10:01:56;;;;;;;6.38;1.90;;;21.80;93.50;;;;;;5062962;28;20044;-78
2022/04/26 10:04:25;;;;;;;4.78;1.63;;;21.70;92.70;;;;;;5044705;28;20565;-79
2022/04/26 10:06:57;;;;;;;7.78;2.45;;;21.70;92.60;;;;;;5064516;28;20052;-77
2022/04/26 10:09:26;;;;;;;3.42;1.80;;;21.80;92.80;;;;;;5058631;28;20148;-77
2022/04/26 10:11:56;;;;;;;6.18;2.60;;;21.70;92.00;;;;;;5076630;28;20068;-77
2022/04/26 10:14:25;;;;;;;4.43;2.03;;;21.60;92.00;;;;;;5076983;28;20045;-78
2022/04/26 10:16:52;;;;;;;4.03;1.52;;;21.60;91.80;;;;;;5077278;28;20063;-77
2022/04/26 10:19:22;;;;;;;4.15;2.40;;;21.50;92.20;;;;;;5072875;28;20049;-77
2022/04/26 10:21:50;;;;;;;7.10;2.40;;;21.50;92.50;;;;;;5056445;28;20045;-76
2022/04/26 10:24:22;;;;;;;4.97;1.63;;;21.80;92.10;;;;;;5056135;28;20072;-78
2022/04/26 10:26:52;;;;;;;6.45;2.33;;;21.70;91.50;;;;;;5038362;28;20099;-77
2022/04/26 10:29:23;;;;;;;3.88;1.92;;;21.80;92.50;;;;;;5056065;28;20041;-78
2022/04/26 10:31:58;;;;;;;8.10;2.90;;;21.90;92.10;;;;;;5037253;28;20059;-79
2022/04/26 10:34:28;;;;;;;6.07;2.50;;;22.10;91.70;;;;;;5055446;28;20041;-77
2022/04/26 10:36:59;;;;;;;4.18;2.00;;;22.10;91.30;;;;;;5056489;28;20041;-77
2022/04/26 10:39:35;;;;;;;6.53;1.83;;;22.10;90.80;;;;;;5056130;28;20045;-77
2022/04/26 10:42:07;;;;;;;7.80;2.10;;;22.30;91.10;;;;;;5056365;28;20119;-78
2022/04/26 10:44:40;;;;;;;3.85;1.70;;;22.50;90.40;;;;;;5038020;28;20041;-77
2022/04/26 10:47:35;;;;;;;5.28;1.90;;;22.40;90.10;;;;;;5038923;28;20041;-78
2022/04/26 10:50:08;;;;;;;3.55;1.52;;;22.50;89.80;;;;;;5025126;28;20111;-77
2022/04/26 10:52:44;;;;;;;4.18;1.73;;;22.60;88.90;;;;;;5022210;28;20056;-77
2022/04/26 10:55:20;;;;;;;4.32;1.42;;;22.90;88.00;;;;;;5021366;28;20073;-77
2022/04/26 10:57:50;;;;;;;;;;;23.00;86.80;;;;;;5041557;28;20053;-78
2022/04/26 11:00:21;;;;;;;3.97;1.90;;;22.60;86.70;;;;;;5039211;28;19921;-76
2022/04/26 11:02:51;;;;;;;7.05;2.95;;;22.50;86.50;;;;;;5039603;28;20076;-77
2022/04/26 11:05:24;;;;;;;6.97;2.10;;;22.70;87.00;;;;;;5054511;28;20041;-77
2022/04/26 11:07:52;;;;;;;4.50;1.90;;;23.10;87.30;;;;;;5088229;22;20059;-75
2022/04/26 11:10:21;;;;;;;6.80;2.25;;;23.40;85.50;;;;;;5060474;28;20045;-76
2022/04/26 11:12:51;;;;;;;6.57;2.55;;;23.60;84.10;;;;;;5056445;28;20036;-75
2022/04/26 11:15:22;;;;;;;5.32;2.40;;;24.10;83.90;;;;;;5075249;28;20044;-74
2022/04/26 11:17:51;;;;;;;5.30;2.10;;;24.50;81.70;;;;;;5068337;28;20447;-75
2022/04/26 11:20:20;;;;;;;6.70;2.92;;;24.80;80.70;;;;;;5047232;28;20143;-75
2022/04/26 11:22:49;;;;;;;8.63;2.95;;;24.90;80.20;;;;;;5037744;28;20040;-76
2022/04/26 11:28:09;;;;;;;9.57;2.47;;;25.10;77.00;;;;;;5054651;28;20037;-76
2022/04/26 11:30:40;;;;;;;9.32;2.60;;;25.10;77.10;;;;;;5053825;28;20037;-75
2022/04/26 11:33:11;;;;;;;8.75;2.40;;;25.30;76.80;;;;;;5055100;28;20067;-75
2022/04/26 11:35:39;;;;;;;7.03;2.67;;;25.30;75.80;;;;;;5055022;28;20038;-74
2022/04/26 11:38:13;;;;;;;7.90;2.72;;;25.80;74.70;;;;;;5054509;28;20391;-74
2022/04/26 11:40:43;;;;;;;4.07;1.52;;;26.00;74.30;;;;;;5042633;28;20424;-75
2022/04/26 11:43:13;;;;;;;7.90;3.17;;;25.90;72.20;;;;;;5054465;28;20041;-76
2022/04/26 11:45:44;;;;;;;9.90;3.95;;;25.90;74.00;;;;;;5056524;28;20037;-75
2022/04/26 11:48:13;;;;;;;5.70;2.58;;;26.00;72.40;;;;;;5054789;28;20033;-76
2022/04/26 11:50:42;;;;;;;7.38;2.95;;;25.70;70.60;;;;;;5055915;28;20047;-76
2022/04/26 11:53:11;;;;;;;13.40;4.70;;;25.60;71.30;;;;;;5037552;28;20143;-75
2022/04/26 11:55:39;;;;;;;12.88;5.55;;;25.50;72.00;;;;;;5055074;28;20109;-76
2022/04/26 11:58:10;;;;;;;14.90;5.38;;;25.50;71.00;;;;;;5055794;28;20037;-76
2022/04/26 12:00:51;;;;;;;11.38;3.50;;;25.40;71.10;;;;;;5054296;28;20040;-76
2022/04/26 12:03:20;;;;;;;9.43;3.50;;;25.20;70.10;;;;;;5029508;28;20172;-75
2022/04/26 12:05:50;;;;;;;8.15;2.80;;;25.00;70.10;;;;;;5054933;28;20041;-76
2022/04/26 12:08:18;;;;;;;11.30;3.35;;;24.70;70.40;;;;;;5054635;28;20098;-76
2022/04/26 12:10:47;;;;;;;12.63;4.38;;;24.50;70.30;;;;;;5056960;28;20056;-75
2022/04/26 12:13:16;;;;;;;12.68;4.60;;;24.20;71.20;;;;;;5036091;28;20049;-75
2022/04/26 12:15:44;;;;;;;13.75;4.22;;;24.00;71.60;;;;;;5053829;28;20079;-75
2022/04/26 12:18:14;;;;;;;4.20;1.50;;;23.80;71.90;;;;;;5054106;28;20044;-75
2022/04/26 12:20:59;;;;;;;2.78;1.60;;;23.60;80.50;;;;;;5054611;28;20052;-75
2022/04/26 12:23:27;;;;;;;3.92;1.27;;;23.60;82.70;;;;;;5054026;28;20048;-76
2022/04/26 12:25:56;;;;;;;5.10;2.10;;;23.30;84.50;;;;;;5058070;28;20057;-76
2022/04/26 12:28:24;;;;;;;3.00;1.20;;;23.30;84.70;;;;;;5041279;28;20041;-75
2022/04/26 12:30:54;;;;;;;4.88;1.60;;;23.00;85.00;;;;;;5058315;28;20037;-75
2022/04/26 12:33:29;;;;;;;4.05;1.00;;;23.30;85.60;;;;;;5039019;28;20060;-75
2022/04/26 12:35:58;;;;;;;5.95;2.85;;;23.50;85.10;;;;;;5058218;28;20067;-75
2022/04/26 12:38:26;;;;;;;4.75;1.60;;;23.40;85.10;;;;;;5059725;28;20104;-75
2022/04/26 12:41:07;;;;;;;4.28;1.13;;;23.50;86.30;;;;;;5040172;28;20063;-75
2022/04/26 12:43:35;;;;;;;3.67;1.77;;;23.20;85.90;;;;;;5050560;28;20033;-75
2022/04/26 12:46:06;;;;;;;3.80;1.88;;;23.30;86.90;;;;;;5059776;28;20413;-75
2022/04/26 12:51:22;;;;;;;4.63;1.60;;;23.10;88.20;;;;;;5054283;28;20491;-75
2022/04/26 12:53:51;;;;;;;5.00;1.33;;;22.60;88.10;;;;;;5056432;28;20043;-74
2022/04/26 12:56:21;;;;;;;8.05;3.03;;;22.30;89.30;;;;;;5067114;28;20535;-75
2022/04/26 12:58:50;;;;;;;7.18;1.77;;;22.30;90.30;;;;;;5072125;28;20033;-75
2022/04/26 13:01:20;;;;;;;3.53;1.60;;;21.90;90.30;;;;;;5056364;28;20380;-75
2022/04/26 13:03:48;;;;;;;4.60;2.33;;;21.80;90.50;;;;;;5054865;28;20037;-75
2022/04/26 13:06:18;;;;;;;6.50;2.15;;;21.70;91.10;;;;;;5057578;28;20124;-75
2022/04/26 13:08:47;;;;;;;3.78;1.48;;;21.90;91.10;;;;;;5037460;28;20592;-73
2022/04/26 13:11:17;;;;;;;6.88;2.67;;;22.10;89.90;;;;;;5055304;28;20445;-75
2022/04/26 13:13:48;;;;;;;9.95;3.05;;;22.30;90.10;;;;;;5055291;28;20120;-75
2022/04/26 13:16:16;;;;;;;6.18;2.15;;;22.60;89.10;;;;;;5037337;28;20094;-75
2022/04/26 13:18:46;;;;;;;5.55;2.40;;;22.50;87.90;;;;;;5055614;28;20033;-74
2022/04/26 13:21:13;;;;;;;4.97;1.67;;;22.50;87.40;;;;;;5038815;28;20052;-75
2022/04/26 13:23:41;;;;;;;5.35;1.40;;;22.70;86.50;;;;;;5056493;28;20110;-75
2022/04/26 13:26:08;;;;;;;4.50;1.33;;;22.80;86.10;;;;;;5056905;28;20067;-75
2022/04/26 13:28:36;;;;;;;5.97;2.10;;;22.90;85.40;;;;;;5056668;28;20045;-75
2022/04/26 13:31:03;;;;;;;7.63;3.67;;;23.40;85.00;;;;;;5055253;28;20056;-75
2022/04/26 13:33:31;;;;;;;5.30;2.17;;;23.70;82.40;;;;;;5055356;28;20044;-76
2022/04/26 13:36:00;;;;;;;6.28;1.75;;;23.60;83.00;;;;;;5033081;28;20057;-74
2022/04/26 13:38:28;;;;;;;4.68;2.13;;;23.80;82.70;;;;;;5035326;28;20036;-74
2022/04/26 13:40:56;;;;;;;5.72;2.05;;;23.70;83.40;;;;;;5018971;28;20083;-74
2022/04/26 13:43:24;;;;;;;4.60;1.40;;;23.40;84.50;;;;;;5037936;28;20033;-75
2022/04/26 13:45:51;;;;;;;4.18;1.63;;;23.00;84.60;;;;;;5019693;28;20057;-75
2022/04/26 13:48:19;;;;;;;5.45;1.77;;;22.80;85.30;;;;;;5037767;28;20045;-75
2022/04/26 13:50:46;;;;;;;5.25;2.63;;;22.50;85.80;;;;;;5037653;28;20034;-75
2022/04/26 13:53:15;;;;;;;6.03;1.92;;;22.60;85.20;;;;;;5037930;28;20049;-75
2022/04/26 13:55:43;;;;;;;4.28;2.00;;;22.70;85.60;;;;;;5039210;28;20049;-75
2022/04/26 13:58:10;;;;;;;3.45;1.48;;;22.80;86.40;;;;;;5039316;28;20038;-75
2022/04/26 14:00:38;;;;;;;6.93;2.10;;;22.70;86.50;;;;;;5038203;28;20049;-75
2022/04/26 14:03:06;;;;;;;5.03;1.77;;;22.90;85.20;;;;;;5038296;28;20520;-75
2022/04/26 14:05:34;;;;;;;3.97;1.73;;;22.60;84.60;;;;;;5037695;28;20073;-75
2022/04/26 14:08:02;;;;;;;6.22;2.30;;;22.50;85.20;;;;;;5036876;28;20057;-75
2022/04/26 14:10:32;;;;;;;7.05;1.73;;;22.60;85.40;;;;;;5038673;28;20048;-76
2022/04/26 14:12:59;;;;;;;2.67;1.15;;;22.60;84.90;;;;;;5036972;28;20045;-75
2022/04/26 14:23:46;;;;;;;6.47;2.15;;;22.80;83.00;;;;;;5011717;28;20054;-75
2022/04/26 14:26:15;;;;;;;5.05;1.70;;;22.90;81.80;;;;;;5037994;28;20049;-75
2022/04/26 14:28:44;;;;;;;6.53;1.75;;;22.90;81.90;;;;;;5036361;28;20042;-75
2022/04/26 14:31:11;;;;;;;7.25;1.77;;;23.00;81.30;;;;;;5035791;28;20042;-76
2022/04/26 14:33:38;;;;;;;9.07;5.00;;;22.90;81.40;;;;;;5035496;28;20045;-75
2022/04/26 14:36:06;;;;;;;5.10;1.95;;;23.10;81.50;;;;;;5035138;28;20041;-74
2022/04/26 14:38:33;;;;;;;9.93;3.00;;;23.20;80.60;;;;;;5037942;28;20038;-76
2022/04/26 14:41:01;;;;;;;7.72;1.98;;;23.30;80.70;;;;;;5036567;28;20088;-74
2022/04/26 14:43:30;;;;;;;7.50;2.35;;;23.40;80.00;;;;;;5036514;28;20493;-75
2022/04/26 14:45:57;;;;;;;5.03;2.20;;;23.60;79.70;;;;;;5021674;28;20042;-75
2022/04/26 14:48:26;;;;;;;5.85;1.65;;;23.40;79.00;;;;;;5037579;28;20049;-76
2022/04/26 14:50:54;;;;;;;4.85;1.80;;;23.60;79.10;;;;;;5036309;28;20088;-76
2022/04/26 14:53:22;;;;;;;4.65;2.05;;;23.70;78.90;;;;;;5017037;28;20140;-75
2022/04/26 14:55:49;;;;;;;4.97;1.90;;;23.70;78.30;;;;;;5035388;28;20052;-76
2022/04/26 14:58:17;;;;;;;4.28;1.70;;;23.80;78.20;;;;;;5034575;28;20144;-76
2022/04/26 15:00:46;;;;;;;6.97;2.17;;;23.90;81.80;;;;;;5035346;28;20050;-76
2022/04/26 15:03:14;;;;;;;6.22;1.90;;;23.80;84.50;;;;;;5036116;28;20045;-75
2022/04/26 15:05:41;;;;;;;3.80;1.83;;;23.50;85.90;;;;;;5035683;28;20041;-76
2022/04/26 15:10:53;;;;;;;4.18;1.58;;;23.20;86.70;;;;;;5037319;28;20494;-76
2022/04/26 15:18:52;;;;;;;;;;;22.30;88.00;;;;;;5036171;28;20500;-74
2022/04/26 15:21:19;;;;;;;3.58;1.60;;;21.90;90.00;;;;;;5017478;28;19988;-74
2022/04/26 15:23:47;;;;;;;5.65;1.98;;;21.90;90.50;;;;;;5040626;28;20065;-75
2022/04/26 15:26:14;;;;;;;4.85;1.73;;;21.70;90.70;;;;;;5035448;28;20045;-74
2022/04/26 15:28:42;;;;;;;8.13;2.10;;;21.60;91.00;;;;;;5035882;28;20583;-75
2022/04/26 15:31:16;;;;;;;4.70;2.15;;;21.40;91.20;;;;;;5035365;28;20037;-74
2022/04/26 15:33:44;;;;;;;4.45;1.98;;;21.40;91.20;;;;;;5034497;28;20518;-74
2022/04/26 15:36:12;;;;;;;4.32;1.60;;;21.50;91.00;;;;;;5034472;28;20099;-73
2022/04/26 15:38:39;;;;;;;3.88;1.40;;;21.50;91.10;;;;;;5039447;28;20034;-74
2022/04/26 15:41:07;;;;;;;3.50;1.90;;;21.60;91.00;;;;;;5044528;28;20179;-75
2022/04/26 15:43:35;;;;;;;5.85;2.38;;;21.60;91.20;;;;;;5038540;28;20141;-74
2022/04/26 15:46:04;;;;;;;4.82;2.10;;;21.80;91.20;;;;;;5034640;28;20112;-75
2022/04/26 15:48:37;;;;;;;2.67;1.45;;;21.90;91.20;;;;;;5034514;28;20037;-75
2022/04/26 15:51:05;;;;;;;3.38;1.50;;;21.90;91.10;;;;;;5034901;28;20500;-74
2022/04/26 15:53:32;;;;;;;3.97;1.50;;;22.10;91.10;;;;;;5035143;28;20041;-74
2022/04/26 15:56:00;;;;;;;6.53;2.10;;;21.90;91.40;;;;;;5034782;28;20046;-74
2022/04/26 15:58:28;;;;;;;4.70;2.80;;;22.00;92.00;;;;;;5035119;28;20045;-74
2022/04/26 16:00:57;;;;;;;4.30;1.90;;;22.00;91.50;;;;;;5020915;28;20065;-76
2022/04/26 16:03:24;;;;;;;4.07;1.60;;;21.70;91.50;;;;;;5038930;28;20503;-74
2022/04/26 16:05:54;;;;;;;4.05;1.88;;;21.40;91.60;;;;;;5038471;28;20049;-75
2022/04/26 16:08:21;;;;;;;2.90;1.58;;;21.30;91.80;;;;;;5039331;28;20053;-75
2022/04/26 16:21:50;;;;;;;5.82;2.03;;;20.50;93.00;;;;;;5039675;28;20103;-75
2022/04/26 16:24:17;;;;;;;5.15;1.70;;;20.40;93.30;;;;;;5038927;28;20421;-75
2022/04/26 16:26:45;;;;;;;6.75;2.33;;;20.30;93.60;;;;;;5023924;28;20049;-75
2022/04/26 16:29:12;;;;;;;5.60;1.90;;;20.30;94.10;;;;;;5032773;28;20077;-76
2022/04/26 16:31:40;;;;;;;6.22;1.95;;;20.30;94.30;;;;;;5053286;28;20056;-77
2022/04/26 16:34:07;;;;;;;5.40;2.17;;;20.30;94.40;;;;;;5053197;28;20048;-77
2022/04/26 16:36:36;;;;;;;7.70;2.08;;;20.20;94.70;;;;;;5052589;28;20074;-76
2022/04/26 16:39:06;;;;;;;4.32;2.22;;;20.10;94.90;;;;;;5036206;28;20045;-75
2022/04/26 16:41:34;;;;;;;9.40;4.05;;;20.00;95.30;;;;;;5038878;28;20072;-76
2022/04/26 16:44:02;;;;;;;9.02;3.67;;;19.90;95.40;;;;;;5035554;28;20116;-76
2022/04/26 16:46:30;;;;;;;8.98;3.75;;;19.90;96.00;;;;;;5050884;28;20041;-76
2022/04/26 16:48:57;;;;;;;6.63;3.55;;;19.80;96.20;;;;;;5054441;28;20041;-76
2022/04/26 16:51:26;;;;;;;5.93;3.92;;;19.80;96.50;;;;;;5053216;28;20033;-75
2022/04/26 16:53:53;;;;;;;10.38;3.55;;;19.80;96.50;;;;;;5057271;28;20046;-75
2022/04/26 16:56:22;;;;;;;8.07;4.05;;;19.70;96.80;;;;;;5070807;28;20052;-76
2022/04/26 16:58:50;;;;;;;10.30;4.90;;;19.70;97.10;;;;;;5069547;28;20040;-76
2022/04/26 17:01:17;;;;;;;10.15;6.30;;;19.60;97.40;;;;;;5072617;28;20063;-76
2022/04/26 17:03:45;;;;;;;17.00;10.30;;;19.50;97.60;;;;;;5044494;28;20099;-77
2022/04/26 17:06:12;;;;;;;19.52;10.90;;;19.40;98.00;;;;;;5068349;28;20104;-76
2022/04/26 17:08:40;;;;;;;18.67;11.50;;;19.40;98.20;;;;;;5085986;23;20043;-76
2022/04/26 17:13:55;;;;;;;17.55;11.52;;;19.30;98.80;;;;;;5080355;28;20052;-77